sensor_id;sensor_type;location;lat;lon;timestamp;pressure;altitude;pressure_sealevel;temperature;humidity
59877;BME280;45749;51.140;17.184;2023-05-19T00:01:08;101151.81;;;12.02;75.43
59877;BME280;45749;51.140;17.184;2023-05-19T00:03:35;101146.72;;;11.99;75.77
59877;BME280;45749;51.140;17.184;2023-05-19T00:06:05;101152.88;;;12.00;75.72
59877;BME280;45749;51.140;17.184;2023-05-19T00:08:32;101153.72;;;12.00;75.58
59877;BME280;45749;51.140;17.184;2023-05-19T00:11:00;101144.28;;;11.96;75.94
59877;BME280;45749;51.140;17.184;2023-05-19T00:13:26;101151.56;;;11.92;75.97
59877;BME280;45749;51.140;17.184;2023-05-19T00:15:52;101144.78;;;11.88;76.15
59877;BME280;45749;51.140;17.184;2023-05-19T00:18:18;101145.72;;;11.87;76.34
59877;BME280;45749;51.140;17.184;2023-05-19T00:20:43;101138.91;;;11.83;76.46
59877;BME280;45749;51.140;17.184;2023-05-19T00:23:09;101149.59;;;11.82;76.70
59877;BME280;45749;51.140;17.184;2023-05-19T00:25:35;101152.44;;;11.79;76.60
59877;BME280;45749;51.140;17.184;2023-05-19T00:28:00;101151.59;;;11.78;76.78
59877;BME280;45749;51.140;17.184;2023-05-19T00:30:27;101153.56;;;11.74;76.65
59877;BME280;45749;51.140;17.184;2023-05-19T00:32:53;101146.59;;;11.73;76.86
59877;BME280;45749;51.140;17.184;2023-05-19T00:35:19;101135.75;;;11.64;77.17
59877;BME280;45749;51.140;17.184;2023-05-19T00:37:44;101137.34;;;11.66;77.01
59877;BME280;45749;51.140;17.184;2023-05-19T00:40:09;101142.66;;;11.66;77.03
59877;BME280;45749;51.140;17.184;2023-05-19T00:42:35;101141.88;;;11.64;77.24
59877;BME280;45749;51.140;17.184;2023-05-19T00:45:00;101143.88;;;11.61;77.24
59877;BME280;45749;51.140;17.184;2023-05-19T00:47:26;101136.13;;;11.58;77.52
59877;BME280;45749;51.140;17.184;2023-05-19T00:49:51;101136.25;;;11.56;77.50
59877;BME280;45749;51.140;17.184;2023-05-19T00:52:16;101139.94;;;11.54;77.41
59877;BME280;45749;51.140;17.184;2023-05-19T00:54:43;101134.00;;;11.50;77.39
59877;BME280;45749;51.140;17.184;2023-05-19T00:57:09;101134.94;;;11.49;77.70
59877;BME280;45749;51.140;17.184;2023-05-19T00:59:35;101142.03;;;11.48;77.54
59877;BME280;45749;51.140;17.184;2023-05-19T01:02:00;101141.16;;;11.48;77.75
59877;BME280;45749;51.140;17.184;2023-05-19T01:04:26;101139.59;;;11.45;77.76
59877;BME280;45749;51.140;17.184;2023-05-19T01:06:54;101143.91;;;11.46;77.75
59877;BME280;45749;51.140;17.184;2023-05-19T01:09:21;101146.00;;;11.41;77.86
59877;BME280;45749;51.140;17.184;2023-05-19T01:11:47;101146.94;;;11.40;77.89
59877;BME280;45749;51.140;17.184;2023-05-19T01:14:13;101140.25;;;11.35;78.06
59877;BME280;45749;51.140;17.184;2023-05-19T01:22:10;101146.66;;;11.31;78.43
59877;BME280;45749;51.140;17.184;2023-05-19T01:25:00;101143.19;;;11.30;78.69
59877;BME280;45749;51.140;17.184;2023-05-19T01:30:39;101151.19;;;11.28;78.91
59877;BME280;45749;51.140;17.184;2023-05-19T01:33:07;101151.31;;;11.27;79.06
59877;BME280;45749;51.140;17.184;2023-05-19T01:35:35;101151.41;;;11.25;78.96
59877;BME280;45749;51.140;17.184;2023-05-19T01:38:01;101142.72;;;11.23;79.25
59877;BME280;45749;51.140;17.184;2023-05-19T01:40:27;101126.47;;;11.15;79.31
59877;BME280;45749;51.140;17.184;2023-05-19T01:42:57;101141.97;;;11.21;79.47
59877;BME280;45749;51.140;17.184;2023-05-19T01:45:24;101142.06;;;11.20;79.67
59877;BME280;45749;51.140;17.184;2023-05-19T01:47:53;101150.94;;;11.19;79.60
59877;BME280;45749;51.140;17.184;2023-05-19T01:50:19;101140.75;;;11.13;79.60
59877;BME280;45749;51.140;17.184;2023-05-19T01:52:45;101144.97;;;11.15;79.66
59877;BME280;45749;51.140;17.184;2023-05-19T01:55:10;101149.34;;;11.16;79.65
59877;BME280;45749;51.140;17.184;2023-05-19T01:57:42;101148.56;;;11.14;79.83
59877;BME280;45749;51.140;17.184;2023-05-19T02:00:15;101139.69;;;11.15;79.92
59877;BME280;45749;51.140;17.184;2023-05-19T02:03:16;101136.38;;;11.12;80.09
59877;BME280;45749;51.140;17.184;2023-05-19T02:08:26;101136.69;;;11.07;80.00
59877;BME280;45749;51.140;17.184;2023-05-19T02:10:57;101132.44;;;11.04;80.06
59877;BME280;45749;51.140;17.184;2023-05-19T02:13:29;101129.97;;;11.01;80.53
59877;BME280;45749;51.140;17.184;2023-05-19T02:15:59;101139.72;;;11.01;80.49
59877;BME280;45749;51.140;17.184;2023-05-19T02:18:27;101135.63;;;10.95;80.49
59877;BME280;45749;51.140;17.184;2023-05-19T02:20:54;101130.66;;;10.91;80.58
59877;BME280;45749;51.140;17.184;2023-05-19T02:23:19;101131.59;;;10.90;80.80
59877;BME280;45749;51.140;17.184;2023-05-19T02:25:44;101136.88;;;10.90;80.90
59877;BME280;45749;51.140;17.184;2023-05-19T02:28:10;101134.31;;;10.88;80.88
59877;BME280;45749;51.140;17.184;2023-05-19T02:30:35;101131.78;;;10.87;80.87
59877;BME280;45749;51.140;17.184;2023-05-19T02:33:00;101126.69;;;10.84;81.16
59877;BME280;45749;51.140;17.184;2023-05-19T02:35:25;101135.47;;;10.84;81.13
59877;BME280;45749;51.140;17.184;2023-05-19T02:37:52;101122.38;;;10.83;81.37
59877;BME280;45749;51.140;17.184;2023-05-19T02:40:18;101106.25;;;10.73;81.42
59877;BME280;45749;51.140;17.184;2023-05-19T02:42:43;101115.66;;;10.77;81.59
59877;BME280;45749;51.140;17.184;2023-05-19T02:45:09;101115.72;;;10.75;81.47
59877;BME280;45749;51.140;17.184;2023-05-19T02:47:35;101120.00;;;10.78;81.71
59877;BME280;45749;51.140;17.184;2023-05-19T02:50:00;101120.09;;;10.76;81.73
59877;BME280;45749;51.140;17.184;2023-05-19T02:52:25;101116.59;;;10.76;81.94
59877;BME280;45749;51.140;17.184;2023-05-19T02:54:50;101119.25;;;10.76;81.92
59877;BME280;45749;51.140;17.184;2023-05-19T02:57:16;101112.34;;;10.73;82.16
59877;BME280;45749;51.140;17.184;2023-05-19T02:59:41;101114.22;;;10.71;81.99
59877;BME280;45749;51.140;17.184;2023-05-19T03:02:07;101115.00;;;10.73;81.97
59877;BME280;45749;51.140;17.184;2023-05-19T03:04:32;101118.66;;;10.71;82.26
59877;BME280;45749;51.140;17.184;2023-05-19T03:07:08;101114.03;;;10.74;82.20
59877;BME280;45749;51.140;17.184;2023-05-19T03:09:37;101109.78;;;10.72;81.98
59877;BME280;45749;51.140;17.184;2023-05-19T03:12:03;101108.94;;;10.71;82.33
59877;BME280;45749;51.140;17.184;2023-05-19T03:14:30;101106.50;;;10.68;82.41
59877;BME280;45749;51.140;17.184;2023-05-19T03:16:56;101105.66;;;10.68;82.54
59877;BME280;45749;51.140;17.184;2023-05-19T03:19:21;101109.91;;;10.70;82.71
59877;BME280;45749;51.140;17.184;2023-05-19T03:21:47;101113.38;;;10.71;82.60
59877;BME280;45749;51.140;17.184;2023-05-19T03:24:12;101111.59;;;10.71;83.02
59877;BME280;45749;51.140;17.184;2023-05-19T03:26:38;101107.25;;;10.70;82.98
59877;BME280;45749;51.140;17.184;2023-05-19T03:29:03;101109.97;;;10.69;83.15
59877;BME280;45749;51.140;17.184;2023-05-19T03:31:28;101108.09;;;10.71;83.20
59877;BME280;45749;51.140;17.184;2023-05-19T03:33:55;101113.38;;;10.71;83.36
59877;BME280;45749;51.140;17.184;2023-05-19T03:36:22;101115.91;;;10.72;83.53
59877;BME280;45749;51.140;17.184;2023-05-19T03:38:47;101113.28;;;10.72;83.58
59877;BME280;45749;51.140;17.184;2023-05-19T03:41:13;101113.19;;;10.74;83.70
59877;BME280;45749;51.140;17.184;2023-05-19T03:43:38;101112.34;;;10.73;83.81
59877;BME280;45749;51.140;17.184;2023-05-19T03:46:03;101113.19;;;10.74;83.80
59877;BME280;45749;51.140;17.184;2023-05-19T03:48:29;101115.66;;;10.77;83.92
59877;BME280;45749;51.140;17.184;2023-05-19T03:50:54;101126.94;;;10.79;83.96
59877;BME280;45749;51.140;17.184;2023-05-19T03:53:19;101127.81;;;10.79;83.94
59877;BME280;45749;51.140;17.184;2023-05-19T03:55:45;101126.88;;;10.80;84.08
59877;BME280;45749;51.140;17.184;2023-05-19T03:58:11;101124.06;;;10.84;83.88
59877;BME280;45749;51.140;17.184;2023-05-19T04:00:39;101131.78;;;10.87;83.95
59877;BME280;45749;51.140;17.184;2023-05-19T04:03:04;101126.31;;;10.90;83.82
59877;BME280;45749;51.140;17.184;2023-05-19T04:05:29;101121.97;;;10.89;83.90
59877;BME280;45749;51.140;17.184;2023-05-19T04:07:55;101123.88;;;10.87;84.13
59877;BME280;45749;51.140;17.184;2023-05-19T04:10:20;101122.84;;;10.89;84.25
59877;BME280;45749;51.140;17.184;2023-05-19T04:12:46;101121.78;;;10.92;84.11
59877;BME280;45749;51.140;17.184;2023-05-19T04:15:12;101123.50;;;10.93;84.76
59877;BME280;45749;51.140;17.184;2023-05-19T04:17:37;101116.69;;;10.89;84.27
59877;BME280;45749;51.140;17.184;2023-05-19T04:20:03;101131.13;;;10.97;84.48
59877;BME280;45749;51.140;17.184;2023-05-19T04:22:32;101135.56;;;10.97;84.35
59877;BME280;45749;51.140;17.184;2023-05-19T04:24:57;101138.19;;;10.97;84.47
59877;BME280;45749;51.140;17.184;2023-05-19T04:27:23;101135.38;;;11.00;84.38
59877;BME280;45749;51.140;17.184;2023-05-19T04:29:50;101140.66;;;11.00;84.38
59877;BME280;45749;51.140;17.184;2023-05-19T04:32:15;101135.19;;;11.03;84.54
59877;BME280;45749;51.140;17.184;2023-05-19T04:34:45;101127.44;;;11.00;84.54
59877;BME280;45749;51.140;17.184;2023-05-19T04:37:12;101131.69;;;11.02;84.36
59877;BME280;45749;51.140;17.184;2023-05-19T04:39:39;101122.63;;;11.07;84.44
59877;BME280;45749;51.140;17.184;2023-05-19T04:42:08;101125.94;;;11.10;84.56
59877;BME280;45749;51.140;17.184;2023-05-19T04:44:39;101125.09;;;11.10;84.74
59877;BME280;45749;51.140;17.184;2023-05-19T04:47:10;101124.97;;;11.11;84.50
59877;BME280;45749;51.140;17.184;2023-05-19T04:49:35;101126.78;;;11.11;84.72
59877;BME280;45749;51.140;17.184;2023-05-19T04:52:07;101125.63;;;11.15;84.69
59877;BME280;45749;51.140;17.184;2023-05-19T04:54:35;101123.84;;;11.15;84.21
59877;BME280;45749;51.140;17.184;2023-05-19T04:57:01;101128.28;;;11.15;84.37
59877;BME280;45749;51.140;17.184;2023-05-19T04:59:26;101126.69;;;11.12;84.51
59877;BME280;45749;51.140;17.184;2023-05-19T05:01:52;101136.38;;;11.12;84.63
59877;BME280;45749;51.140;17.184;2023-05-19T05:04:18;101135.72;;;11.08;84.53
59877;BME280;45749;51.140;17.184;2023-05-19T05:06:44;101138.13;;;11.13;85.00
59877;BME280;45749;51.140;17.184;2023-05-19T05:09:15;101139.91;;;11.12;84.64
59877;BME280;45749;51.140;17.184;2023-05-19T05:11:41;101138.19;;;11.11;84.88
59877;BME280;45749;51.140;17.184;2023-05-19T05:14:07;101136.50;;;11.10;85.16
59877;BME280;45749;51.140;17.184;2023-05-19T05:16:35;101126.50;;;11.01;85.47
59877;BME280;45749;51.140;17.184;2023-05-19T05:19:01;101133.22;;;11.07;85.40
59877;BME280;45749;51.140;17.184;2023-05-19T05:21:27;101136.69;;;11.07;85.41
59877;BME280;45749;51.140;17.184;2023-05-19T05:23:53;101135.00;;;11.06;85.22
59877;BME280;45749;51.140;17.184;2023-05-19T05:26:20;101136.50;;;11.10;85.64
59877;BME280;45749;51.140;17.184;2023-05-19T05:28:47;101145.09;;;11.14;85.43
59877;BME280;45749;51.140;17.184;2023-05-19T05:31:13;101144.13;;;11.15;85.42
59877;BME280;45749;51.140;17.184;2023-05-19T05:33:39;101143.09;;;11.17;85.56
59877;BME280;45749;51.140;17.184;2023-05-19T05:36:04;101140.38;;;11.19;85.45
59877;BME280;45749;51.140;17.184;2023-05-19T05:38:30;101149.69;;;11.24;85.82
59877;BME280;45749;51.140;17.184;2023-05-19T05:40:55;101140.84;;;11.25;85.47
59877;BME280;45749;51.140;17.184;2023-05-19T05:43:20;101145.06;;;11.28;85.60
59877;BME280;45749;51.140;17.184;2023-05-19T05:45:46;101138.09;;;11.27;85.82
59877;BME280;45749;51.140;17.184;2023-05-19T05:48:12;101138.56;;;11.34;86.07
59877;BME280;45749;51.140;17.184;2023-05-19T05:50:37;101138.38;;;11.37;85.62
59877;BME280;45749;51.140;17.184;2023-05-19T05:53:04;101137.31;;;11.39;85.82
59877;BME280;45749;51.140;17.184;2023-05-19T05:55:30;101131.84;;;11.42;85.68
59877;BME280;45749;51.140;17.184;2023-05-19T05:57:56;101134.31;;;11.45;85.42
59877;BME280;45749;51.140;17.184;2023-05-19T06:00:22;101135.88;;;11.48;85.42
59877;BME280;45749;51.140;17.184;2023-05-19T06:02:49;101125.50;;;11.45;85.79
59877;BME280;45749;51.140;17.184;2023-05-19T06:05:15;101141.81;;;11.51;85.62
59877;BME280;45749;51.140;17.184;2023-05-19T06:07:41;101138.13;;;11.54;85.86
59877;BME280;45749;51.140;17.184;2023-05-19T06:10:07;101140.69;;;11.56;85.98
59877;BME280;45749;51.140;17.184;2023-05-19T06:12:33;101141.53;;;11.56;85.63
59877;BME280;45749;51.140;17.184;2023-05-19T06:14:58;101143.22;;;11.57;85.97
59877;BME280;45749;51.140;17.184;2023-05-19T06:17:24;101157.00;;;11.62;85.92
59877;BME280;45749;51.140;17.184;2023-05-19T06:19:49;101158.63;;;11.65;85.95
59877;BME280;45749;51.140;17.184;2023-05-19T06:22:15;101153.22;;;11.66;86.01
59877;BME280;45749;51.140;17.184;2023-05-19T06:24:40;101164.56;;;11.68;85.75
59877;BME280;45749;51.140;17.184;2023-05-19T06:27:05;101166.25;;;11.69;86.04
59877;BME280;45749;51.140;17.184;2023-05-19T06:29:31;101160.97;;;11.69;85.82
59877;BME280;45749;51.140;17.184;2023-05-19T06:31:56;101161.91;;;11.68;86.03
59877;BME280;45749;51.140;17.184;2023-05-19T06:34:21;101162.66;;;11.70;85.81
59877;BME280;45749;51.140;17.184;2023-05-19T06:36:47;101158.19;;;11.71;86.01
59877;BME280;45749;51.140;17.184;2023-05-19T06:39:12;101158.41;;;11.68;85.91
59877;BME280;45749;51.140;17.184;2023-05-19T06:41:37;101163.59;;;11.69;85.76
59877;BME280;45749;51.140;17.184;2023-05-19T06:44:05;101163.69;;;11.68;85.90
59877;BME280;45749;51.140;17.184;2023-05-19T06:46:30;101169.72;;;11.70;85.72
59877;BME280;45749;51.140;17.184;2023-05-19T06:48:55;101162.66;;;11.70;85.82
59877;BME280;45749;51.140;17.184;2023-05-19T06:51:21;101164.06;;;11.76;85.95
59877;BME280;45749;51.140;17.184;2023-05-19T06:53:47;101166.50;;;11.79;85.99
59877;BME280;45749;51.140;17.184;2023-05-19T06:56:13;101162.25;;;11.77;85.96
59877;BME280;45749;51.140;17.184;2023-05-19T06:58:39;101168.31;;;11.79;86.06
59877;BME280;45749;51.140;17.184;2023-05-19T07:01:05;101161.31;;;11.78;85.80
59877;BME280;45749;51.140;17.184;2023-05-19T07:03:30;101161.94;;;11.81;85.89
59877;BME280;45749;51.140;17.184;2023-05-19T07:05:56;101164.34;;;11.86;86.29
59877;BME280;45749;51.140;17.184;2023-05-19T07:08:21;101165.09;;;11.88;85.69
59877;BME280;45749;51.140;17.184;2023-05-19T07:10:46;101172.72;;;11.92;85.90
59877;BME280;45749;51.140;17.184;2023-05-19T07:13:11;101166.59;;;11.92;85.93
59877;BME280;45749;51.140;17.184;2023-05-19T07:15:37;101173.56;;;11.93;85.96
59877;BME280;45749;51.140;17.184;2023-05-19T07:18:02;101163.84;;;11.93;85.65
59877;BME280;45749;51.140;17.184;2023-05-19T07:20:27;101167.53;;;11.91;85.76
59877;BME280;45749;51.140;17.184;2023-05-19T07:22:53;101165.94;;;11.88;85.57
59877;BME280;45749;51.140;17.184;2023-05-19T07:25:18;101171.97;;;11.90;85.87
59877;BME280;45749;51.140;17.184;2023-05-19T07:27:44;101165.00;;;11.89;85.62
59877;BME280;45749;51.140;17.184;2023-05-19T07:30:10;101166.69;;;11.90;85.52
59877;BME280;45749;51.140;17.184;2023-05-19T07:32:38;101172.09;;;11.89;85.90
59877;BME280;45749;51.140;17.184;2023-05-19T07:35:04;101172.63;;;11.94;85.59
59877;BME280;45749;51.140;17.184;2023-05-19T07:37:30;101174.22;;;11.96;85.71
59877;BME280;45749;51.140;17.184;2023-05-19T07:39:55;101174.88;;;12.00;85.53
59877;BME280;45749;51.140;17.184;2023-05-19T07:42:20;101168.84;;;11.98;85.84
59877;BME280;45749;51.140;17.184;2023-05-19T07:44:46;101169.50;;;12.02;85.59
59877;BME280;45749;51.140;17.184;2023-05-19T07:47:11;101169.38;;;12.03;85.17
59877;BME280;45749;51.140;17.184;2023-05-19T07:49:36;101172.88;;;12.04;85.17
59877;BME280;45749;51.140;17.184;2023-05-19T07:52:02;101177.22;;;12.05;85.12
59877;BME280;45749;51.140;17.184;2023-05-19T07:54:27;101174.66;;;12.03;85.46
59877;BME280;45749;51.140;17.184;2023-05-19T07:56:52;101173.81;;;12.03;85.41
59877;BME280;45749;51.140;17.184;2023-05-19T07:59:18;101185.06;;;12.06;85.36
59877;BME280;45749;51.140;17.184;2023-05-19T08:01:43;101175.31;;;12.07;85.48
59877;BME280;45749;51.140;17.184;2023-05-19T08:04:09;101180.59;;;12.07;85.09
59877;BME280;45749;51.140;17.184;2023-05-19T08:06:34;101176.81;;;12.11;85.61
59877;BME280;45749;51.140;17.184;2023-05-19T08:09:00;101170.47;;;12.13;85.48
59877;BME280;45749;51.140;17.184;2023-05-19T08:11:25;101177.16;;;12.19;85.51
59877;BME280;45749;51.140;17.184;2023-05-19T08:13:51;101169.03;;;12.22;85.81
59877;BME280;45749;51.140;17.184;2023-05-19T08:16:16;101170.50;;;12.26;85.72
59877;BME280;45749;51.140;17.184;2023-05-19T08:18:42;101170.22;;;12.31;85.71
59877;BME280;45749;51.140;17.184;2023-05-19T08:21:07;101166.63;;;12.32;85.95
59877;BME280;45749;51.140;17.184;2023-05-19T08:23:33;101167.25;;;12.35;85.39
59877;BME280;45749;51.140;17.184;2023-05-19T08:26:01;101168.66;;;12.41;85.65
59877;BME280;45749;51.140;17.184;2023-05-19T08:28:27;101177.03;;;12.48;85.52
59877;BME280;45749;51.140;17.184;2023-05-19T08:30:52;101171.41;;;12.52;85.62
59877;BME280;45749;51.140;17.184;2023-05-19T08:33:17;101165.81;;;12.57;85.70
59877;BME280;45749;51.140;17.184;2023-05-19T08:35:45;101164.88;;;12.58;85.55
59877;BME280;45749;51.140;17.184;2023-05-19T08:38:10;101159.16;;;12.64;85.45
59877;BME280;45749;51.140;17.184;2023-05-19T08:40:36;101160.66;;;12.68;85.36
59877;BME280;45749;51.140;17.184;2023-05-19T08:43:02;101163.94;;;12.72;84.81
59877;BME280;45749;51.140;17.184;2023-05-19T08:45:27;101165.41;;;12.76;84.88
59877;BME280;45749;51.140;17.184;2023-05-19T08:47:53;101167.34;;;12.74;84.65
59877;BME280;45749;51.140;17.184;2023-05-19T08:50:30;101170.50;;;12.79;84.60
59877;BME280;45749;51.140;17.184;2023-05-19T08:53:05;101164.34;;;12.78;84.21
59877;BME280;45749;51.140;17.184;2023-05-19T08:56:00;101163.94;;;12.84;84.50
59877;BME280;45749;51.140;17.184;2023-05-19T08:58:29;101162.00;;;12.86;84.48
59877;BME280;45749;51.140;17.184;2023-05-19T09:00:56;101158.44;;;12.87;84.18
59877;BME280;45749;51.140;17.184;2023-05-19T09:03:22;101160.97;;;12.89;84.43
59877;BME280;45749;51.140;17.184;2023-05-19T09:05:47;101154.50;;;12.93;83.75
59877;BME280;45749;51.140;17.184;2023-05-19T09:08:13;101148.06;;;12.97;83.51
59877;BME280;45749;51.140;17.184;2023-05-19T09:10:41;101155.03;;;12.98;83.67
59877;BME280;45749;51.140;17.184;2023-05-19T09:13:06;101152.28;;;13.00;83.76
59877;BME280;45749;51.140;17.184;2023-05-19T09:15:33;101148.91;;;12.98;83.36
59877;BME280;45749;51.140;17.184;2023-05-19T09:18:09;101157.47;;;13.01;83.41
59877;BME280;45749;51.140;17.184;2023-05-19T09:20:36;101157.47;;;13.01;83.50
59877;BME280;45749;51.140;17.184;2023-05-19T09:23:03;101158.94;;;13.05;83.13
59877;BME280;45749;51.140;17.184;2023-05-19T09:25:29;101159.69;;;13.07;83.66
59877;BME280;45749;51.140;17.184;2023-05-19T09:27:56;101144.09;;;13.03;83.15
59877;BME280;45749;51.140;17.184;2023-05-19T09:30:22;101157.56;;;13.12;83.45
59877;BME280;45749;51.140;17.184;2023-05-19T09:32:48;101157.47;;;13.14;83.16
59877;BME280;45749;51.140;17.184;2023-05-19T09:35:13;101159.06;;;13.17;83.31
59877;BME280;45749;51.140;17.184;2023-05-19T09:37:42;101152.38;;;13.24;83.88
59877;BME280;45749;51.140;17.184;2023-05-19T09:40:08;101145.59;;;13.32;83.90
59877;BME280;45749;51.140;17.184;2023-05-19T09:42:36;101146.25;;;13.36;83.72
59877;BME280;45749;51.140;17.184;2023-05-19T09:45:02;101148.22;;;13.45;83.57
59877;BME280;45749;51.140;17.184;2023-05-19T09:47:38;101142.25;;;13.54;83.83
59877;BME280;45749;51.140;17.184;2023-05-19T09:50:06;101138.94;;;13.64;84.29
59877;BME280;45749;51.140;17.184;2023-05-19T09:52:42;101145.25;;;13.74;83.60
59877;BME280;45749;51.140;17.184;2023-05-19T09:55:09;101134.44;;;13.77;82.80
59877;BME280;45749;51.140;17.184;2023-05-19T09:57:36;101136.03;;;13.79;82.97
59877;BME280;45749;51.140;17.184;2023-05-19T10:00:05;101137.59;;;13.82;82.79
59877;BME280;45749;51.140;17.184;2023-05-19T10:02:42;101137.25;;;13.87;82.92
59877;BME280;45749;51.140;17.184;2023-05-19T10:05:18;101130.03;;;13.89;82.72
59877;BME280;45749;51.140;17.184;2023-05-19T10:07:49;101135.22;;;13.90;82.56
59877;BME280;45749;51.140;17.184;2023-05-19T10:10:16;101130.44;;;13.95;82.66
59877;BME280;45749;51.140;17.184;2023-05-19T10:12:42;101128.41;;;13.99;82.47
59877;BME280;45749;51.140;17.184;2023-05-19T10:15:15;101123.19;;;13.97;82.43
59877;BME280;45749;51.140;17.184;2023-05-19T10:17:42;101122.22;;;13.98;81.71
59877;BME280;45749;51.140;17.184;2023-05-19T10:20:13;101121.72;;;13.93;81.67
59877;BME280;45749;51.140;17.184;2023-05-19T10:22:40;101118.13;;;13.94;81.67
59877;BME280;45749;51.140;17.184;2023-05-19T10:25:06;101121.38;;;13.98;81.78
59877;BME280;45749;51.140;17.184;2023-05-19T10:27:41;101118.84;;;13.96;81.66
59877;BME280;45749;51.140;17.184;2023-05-19T10:30:14;101114.25;;;13.98;81.99
59877;BME280;45749;51.140;17.184;2023-05-19T10:32:41;101118.84;;;13.96;81.61
59877;BME280;45749;51.140;17.184;2023-05-19T10:35:11;101121.38;;;13.98;81.73
59877;BME280;45749;51.140;17.184;2023-05-19T10:40:19;101108.63;;;14.03;81.95
59877;BME280;45749;51.140;17.184;2023-05-19T10:43:11;101100.53;;;14.04;81.12
59877;BME280;45749;51.140;17.184;2023-05-19T10:45:45;101104.16;;;14.03;80.58
59877;BME280;45749;51.140;17.184;2023-05-19T10:48:15;101115.00;;;14.00;80.62
59877;BME280;45749;51.140;17.184;2023-05-19T10:50:43;101110.44;;;14.02;80.55
59877;BME280;45749;51.140;17.184;2023-05-19T10:53:16;101105.22;;;14.01;80.68
59877;BME280;45749;51.140;17.184;2023-05-19T10:55:54;101122.00;;;14.01;81.30
59877;BME280;45749;51.140;17.184;2023-05-19T10:58:48;101118.63;;;13.99;81.25
59877;BME280;45749;51.140;17.184;2023-05-19T11:01:15;101117.22;;;14.06;81.69
59877;BME280;45749;51.140;17.184;2023-05-19T11:03:47;101115.63;;;14.04;81.47
59877;BME280;45749;51.140;17.184;2023-05-19T11:06:20;101107.78;;;14.02;81.39
59877;BME280;45749;51.140;17.184;2023-05-19T11:08:52;101125.16;;;14.06;81.14
59877;BME280;45749;51.140;17.184;2023-05-19T11:11:18;101126.84;;;14.07;81.03
59877;BME280;45749;51.140;17.184;2023-05-19T11:13:49;101112.97;;;14.04;81.00
59877;BME280;45749;51.140;17.184;2023-05-19T11:16:18;101121.91;;;14.03;80.94
59877;BME280;45749;51.140;17.184;2023-05-19T11:18:47;101115.75;;;14.02;81.39
59877;BME280;45749;51.140;17.184;2023-05-19T11:21:13;101119.25;;;14.03;81.31
59877;BME280;45749;51.140;17.184;2023-05-19T11:23:38;101122.75;;;14.03;80.98
59877;BME280;45749;51.140;17.184;2023-05-19T11:26:05;101123.72;;;14.02;80.99
59877;BME280;45749;51.140;17.184;2023-05-19T11:28:32;101111.50;;;14.00;81.04
59877;BME280;45749;51.140;17.184;2023-05-19T11:30:59;101117.66;;;14.00;81.05
59877;BME280;45749;51.140;17.184;2023-05-19T11:33:26;101107.03;;;14.00;81.23
59877;BME280;45749;51.140;17.184;2023-05-19T11:35:53;101116.81;;;14.00;80.83
59877;BME280;45749;51.140;17.184;2023-05-19T11:38:19;101114.38;;;13.97;80.84
59877;BME280;45749;51.140;17.184;2023-05-19T11:40:46;101117.19;;;13.95;80.69
59877;BME280;45749;51.140;17.184;2023-05-19T11:43:12;101119.91;;;13.94;80.59
59877;BME280;45749;51.140;17.184;2023-05-19T11:45:38;101119.91;;;13.94;81.11
59877;BME280;45749;51.140;17.184;2023-05-19T11:48:04;101117.19;;;13.95;81.04
59877;BME280;45749;51.140;17.184;2023-05-19T11:50:30;101115.47;;;13.94;81.19
59877;BME280;45749;51.140;17.184;2023-05-19T11:52:59;101117.41;;;13.92;81.13
59877;BME280;45749;51.140;17.184;2023-05-19T11:55:24;101109.03;;;13.86;81.04
59877;BME280;45749;51.140;17.184;2023-05-19T11:57:56;101126.19;;;13.93;81.25
59877;BME280;45749;51.140;17.184;2023-05-19T12:00:26;101123.41;;;13.94;81.41
59877;BME280;45749;51.140;17.184;2023-05-19T12:02:51;101115.47;;;13.94;81.55
59877;BME280;45749;51.140;17.184;2023-05-19T12:05:21;101114.38;;;13.97;81.38
59877;BME280;45749;51.140;17.184;2023-05-19T12:07:47;101122.47;;;13.95;81.03
59877;BME280;45749;51.140;17.184;2023-05-19T12:10:23;101117.50;;;13.91;81.11
59877;BME280;45749;51.140;17.184;2023-05-19T12:12:52;101113.88;;;13.92;80.97
59877;BME280;45749;51.140;17.184;2023-05-19T12:15:20;101118.34;;;13.91;81.13
59877;BME280;45749;51.140;17.184;2023-05-19T12:17:50;101120.28;;;13.89;81.25
59877;BME280;45749;51.140;17.184;2023-05-19T12:20:17;101120.50;;;13.86;81.24
59877;BME280;45749;51.140;17.184;2023-05-19T12:22:43;101119.03;;;13.82;80.80
59877;BME280;45749;51.140;17.184;2023-05-19T12:25:08;101117.44;;;13.79;81.05
59877;BME280;45749;51.140;17.184;2023-05-19T12:27:34;101117.94;;;13.84;81.52
59877;BME280;45749;51.140;17.184;2023-05-19T12:30:02;101115.28;;;13.84;81.43
59877;BME280;45749;51.140;17.184;2023-05-19T12:32:28;101118.56;;;13.88;81.69
59877;BME280;45749;51.140;17.184;2023-05-19T12:34:56;101117.63;;;13.89;81.60
59877;BME280;45749;51.140;17.184;2023-05-19T12:37:25;101110.59;;;13.88;81.63
59877;BME280;45749;51.140;17.184;2023-05-19T12:39:50;101116.19;;;13.96;81.66
59877;BME280;45749;51.140;17.184;2023-05-19T12:42:16;101115.22;;;13.97;81.94
59877;BME280;45749;51.140;17.184;2023-05-19T12:44:43;101107.88;;;14.01;81.96
59877;BME280;45749;51.140;17.184;2023-05-19T12:47:11;101109.47;;;14.03;82.01
59877;BME280;45749;51.140;17.184;2023-05-19T12:49:36;101110.00;;;14.08;81.96
59877;BME280;45749;51.140;17.184;2023-05-19T12:52:02;101105.41;;;14.11;81.84
59877;BME280;45749;51.140;17.184;2023-05-19T12:54:32;101109.50;;;14.15;82.29